createdAt,value
2022-09-05T00:03:07.997Z,2.93
2022-09-05T00:06:13.709Z,2.67
2022-09-05T00:09:22.244Z,2.83
2022-09-05T00:12:34.186Z,2.57
2022-09-05T00:15:45.190Z,2.60
2022-09-05T00:24:20.512Z,2.83
2022-09-05T00:24:30.242Z,2.53
2022-09-05T00:26:18.545Z,2.53
2022-09-05T00:31:03.970Z,2.67
2022-09-05T00:33:16.799Z,2.80
2022-09-05T00:36:34.034Z,3.10
2022-09-05T00:39:41.361Z,2.80
2022-09-05T00:42:54.463Z,3.20
2022-09-05T00:46:02.270Z,3.20
2022-09-05T00:49:17.869Z,3.20
2022-09-05T00:52:29.910Z,3.70
2022-09-05T00:55:40.826Z,3.13
2022-09-05T00:58:59.697Z,3.00
2022-09-05T01:02:08.130Z,2.80
2022-09-05T01:05:25.898Z,2.70
2022-09-05T01:08:50.091Z,2.70
2022-09-05T01:12:24.665Z,2.83
2022-09-05T01:15:35.809Z,2.70
2022-09-05T01:18:51.229Z,3.27
2022-09-05T01:22:23.710Z,2.80
2022-09-05T01:25:38.124Z,2.67
2022-09-05T01:29:16.445Z,3.10
2022-09-05T01:32:30.734Z,2.30
2022-09-05T01:36:00.562Z,2.80
2022-09-05T01:40:15.383Z,2.50
2022-09-05T01:42:50.905Z,2.60
2022-09-05T01:46:01.120Z,2.57
2022-09-05T01:49:13.866Z,2.90
2022-09-05T01:52:57.470Z,2.40
2022-09-05T01:56:30.784Z,2.70
2022-09-05T01:59:45.289Z,2.77
2022-09-05T02:03:04.411Z,2.73
2022-09-05T02:06:30.591Z,3.00
2022-09-05T02:09:51.550Z,3.20
2022-09-05T02:13:13.089Z,2.90
2022-09-05T02:16:22.317Z,2.93
2022-09-05T02:19:31.815Z,3.00
2022-09-05T02:22:43.929Z,3.40
2022-09-05T02:26:02.841Z,3.17
2022-09-05T02:29:28.412Z,3.20
2022-09-05T02:32:43.224Z,2.97
2022-09-05T02:35:54.074Z,3.10
2022-09-05T02:44:31.142Z,3.00
2022-09-05T02:45:16.342Z,3.00
2022-09-05T02:46:04.661Z,3.20
2022-09-05T02:49:21.704Z,3.63
2022-09-05T02:57:27.122Z,3.80
2022-09-05T02:57:34.570Z,3.80
2022-09-05T03:00:04.517Z,3.90
2022-09-05T03:03:19.818Z,4.20
2022-09-05T03:06:36.168Z,3.97
2022-09-05T03:09:59.219Z,4.23
2022-09-05T03:13:48.879Z,3.83
2022-09-05T03:17:30.986Z,3.63
2022-09-05T03:21:09.067Z,4.00
2022-09-05T03:24:55.646Z,4.40
2022-09-05T03:28:29.721Z,3.80
2022-09-05T03:31:51.679Z,4.33
2022-09-05T03:35:33.478Z,3.93
2022-09-05T03:39:20.864Z,3.27
2022-09-05T03:42:39.707Z,3.20
2022-09-05T03:45:58.944Z,3.60
2022-09-05T03:53:29.473Z,3.40
2022-09-05T03:57:13.716Z,3.20
2022-09-05T03:57:18.762Z,3.20
2022-09-05T04:00:22.355Z,3.60
2022-09-05T04:08:13.702Z,3.20
2022-09-05T04:08:30.911Z,3.20
2022-09-05T04:10:31.341Z,3.37
2022-09-05T04:13:40.102Z,3.83
2022-09-05T04:16:51.944Z,4.03
2022-09-05T04:20:01.643Z,3.80
2022-09-05T04:23:17.876Z,3.83
2022-09-05T04:26:41.964Z,3.40
2022-09-05T04:29:58.870Z,3.53
2022-09-05T04:33:06.717Z,4.20
2022-09-05T04:36:19.637Z,3.90
2022-09-05T04:39:27.881Z,3.97
2022-09-05T04:42:31.283Z,4.43
2022-09-05T04:45:40.476Z,3.90
2022-09-05T04:48:49.112Z,4.30
2022-09-05T04:52:31.580Z,4.37
2022-09-05T04:55:46.842Z,5.00
2022-09-05T05:00:07.587Z,5.10
2022-09-05T05:06:10.845Z,4.73
2022-09-05T05:06:20.300Z,5.40
2022-09-05T05:09:27.066Z,5.00
2022-09-05T05:17:54.056Z,5.23
2022-09-05T05:18:13.400Z,4.43
2022-09-05T05:19:47.343Z,3.73
2022-09-05T05:23:08.357Z,4.37
2022-09-05T05:26:21.504Z,4.30
2022-09-05T05:29:29.159Z,4.00
2022-09-05T05:32:45.523Z,3.90
2022-09-05T05:35:50.504Z,5.43
2022-09-05T05:38:59.558Z,5.03
2022-09-05T05:42:19.455Z,5.30
2022-09-05T05:45:28.759Z,5.97
2022-09-05T05:48:37.297Z,5.37
2022-09-05T05:52:01.792Z,5.30
2022-09-05T05:55:50.573Z,5.23
2022-09-05T05:59:11.840Z,5.63
2022-09-05T06:03:24.863Z,4.90
2022-09-05T06:06:39.650Z,4.83
2022-09-05T06:14:51.931Z,5.70
2022-09-05T06:15:00.625Z,5.27
2022-09-05T06:17:35.464Z,5.60
2022-09-05T06:22:09.506Z,5.80
2022-09-05T06:25:17.007Z,5.43
2022-09-05T06:28:27.450Z,4.60
2022-09-05T06:31:48.198Z,4.23
2022-09-05T06:35:15.874Z,4.20
2022-09-05T06:38:39.244Z,3.90
2022-09-05T06:41:57.876Z,4.70
2022-09-05T06:45:27.972Z,3.40
2022-09-05T06:48:46.475Z,5.17
2022-09-05T06:52:40.840Z,5.47
2022-09-05T06:56:12.729Z,4.50
2022-09-05T07:00:00.213Z,5.30
2022-09-05T07:03:23.965Z,3.80
2022-09-05T07:06:50.781Z,3.40
2022-09-05T07:10:22.061Z,3.60
2022-09-05T07:13:38.844Z,3.30
2022-09-05T07:16:52.779Z,3.40
2022-09-05T07:20:00.607Z,3.23
2022-09-05T07:23:25.765Z,3.30
2022-09-05T07:26:51.745Z,2.70
2022-09-05T07:30:01.978Z,2.80
2022-09-05T07:33:05.776Z,2.80
2022-09-05T07:36:13.072Z,3.03
2022-09-05T07:39:28.727Z,2.80
2022-09-05T07:42:38.031Z,3.00
2022-09-05T07:45:55.471Z,3.30
2022-09-05T07:49:03.744Z,3.30
2022-09-05T07:56:54.442Z,3.37
2022-09-05T07:57:10.215Z,2.90
2022-09-05T07:59:08.392Z,2.70
2022-09-05T08:02:13.955Z,2.63
2022-09-05T08:05:34.429Z,2.60
2022-09-05T08:09:21.662Z,2.50
2022-09-05T08:12:27.680Z,2.60
2022-09-05T08:15:42.588Z,2.33
2022-09-05T08:19:07.858Z,2.40
2022-09-05T08:22:17.488Z,2.80
2022-09-05T08:25:25.568Z,2.20
2022-09-05T08:28:42.233Z,2.17
2022-09-05T08:31:52.637Z,2.50
2022-09-05T08:35:02.936Z,2.43
2022-09-05T08:38:06.912Z,1.80
2022-09-05T08:41:18.672Z,2.30
2022-09-05T08:44:37.619Z,2.17
2022-09-05T08:48:16.685Z,2.13
2022-09-05T08:51:30.662Z,2.20
2022-09-05T08:54:38.242Z,1.90
2022-09-05T08:58:04.088Z,1.80
2022-09-05T09:01:16.275Z,1.80
2022-09-05T09:04:38.626Z,1.93
2022-09-05T09:07:56.938Z,2.07
2022-09-05T09:11:07.576Z,2.20
2022-09-05T09:14:31.486Z,2.10
2022-09-05T09:17:43.300Z,1.67
2022-09-05T09:20:54.934Z,2.30
2022-09-05T09:24:09.024Z,1.90
2022-09-05T09:27:41.756Z,1.20
2022-09-05T09:30:57.495Z,2.60
2022-09-05T09:34:22.781Z,2.60
2022-09-05T09:37:51.704Z,2.47
2022-09-05T09:41:19.243Z,2.00
2022-09-05T09:44:58.066Z,1.97
2022-09-05T09:48:20.498Z,1.33
2022-09-05T09:52:06.790Z,1.70
2022-09-05T09:55:52.153Z,1.50
2022-09-05T09:59:13.466Z,1.90
2022-09-05T10:06:36.690Z,1.70
2022-09-05T10:06:42.351Z,1.73
2022-09-05T10:10:59.754Z,1.73
2022-09-05T10:14:49.556Z,1.70
2022-09-05T10:18:27.487Z,1.20
2022-09-05T10:25:28.858Z,1.20
2022-09-05T10:28:39.166Z,1.30
2022-09-05T10:35:05.076Z,1.30
2022-09-05T10:35:27.040Z,1.20
2022-09-05T10:38:40.292Z,1.30
2022-09-05T10:41:50.065Z,1.30
2022-09-05T10:44:55.681Z,1.40
2022-09-05T10:48:12.907Z,1.20
2022-09-05T10:51:27.183Z,1.40
2022-09-05T10:54:39.810Z,1.30
2022-09-05T10:57:54.466Z,1.10
2022-09-05T11:02:21.117Z,1.20
2022-09-05T11:04:46.673Z,1.30
2022-09-05T11:08:03.370Z,1.00
2022-09-05T11:11:26.038Z,1.20
2022-09-05T11:14:49.754Z,1.10
2022-09-05T11:18:00.620Z,1.00
2022-09-05T11:21:08.767Z,1.10
2022-09-05T11:24:27.550Z,1.10
2022-09-05T11:27:35.398Z,1.50
2022-09-05T11:30:42.901Z,1.37
2022-09-05T11:39:49.224Z,1.50
2022-09-05T11:40:10.319Z,2.00
2022-09-05T11:42:17.069Z,1.15
2022-09-05T11:46:02.826Z,1.10
2022-09-05T11:49:37.189Z,1.37
2022-09-05T11:53:30.757Z,1.20
2022-09-05T11:56:54.524Z,1.30
2022-09-05T12:00:32.854Z,1.30
2022-09-05T12:03:59.585Z,1.30
2022-09-05T12:07:26.255Z,1.33
2022-09-05T12:10:48.586Z,1.00
2022-09-05T12:14:01.914Z,1.33
2022-09-05T12:17:35.366Z,1.50
2022-09-05T12:20:50.288Z,1.30
2022-09-05T12:25:15.283Z,1.13
2022-09-05T12:27:41.630Z,1.50
2022-09-05T12:31:07.116Z,1.20
2022-09-05T12:36:05.917Z,1.42
2022-09-05T12:40:57.820Z,1.10
2022-09-05T12:41:42.814Z,1.10
2022-09-05T12:45:02.825Z,1.45
2022-09-05T12:48:14.158Z,1.10
2022-09-05T12:51:46.494Z,1.30
2022-09-05T12:54:51.708Z,1.20
2022-09-05T13:02:55.032Z,1.30
2022-09-05T13:03:09.381Z,1.20
2022-09-05T13:05:02.499Z,1.20
2022-09-05T13:08:21.708Z,1.20
2022-09-05T13:14:52.312Z,1.40
2022-09-05T13:15:20.164Z,1.20
2022-09-05T13:18:28.991Z,1.23
2022-09-05T13:21:36.567Z,1.30
2022-09-05T13:24:47.969Z,1.20
2022-09-05T13:28:04.048Z,1.27
2022-09-05T13:34:17.763Z,1.27
2022-09-05T13:38:11.969Z,1.30
2022-09-05T13:38:47.708Z,1.20
2022-09-05T13:41:52.728Z,1.08
2022-09-05T13:45:00.488Z,1.70
2022-09-05T13:49:23.787Z,1.42
2022-09-05T13:52:08.670Z,1.42
2022-09-05T13:55:24.385Z,1.30
2022-09-05T13:58:39.898Z,1.08
2022-09-05T14:02:26.223Z,1.02
2022-09-05T14:05:35.744Z,1.10
2022-09-05T14:12:36.939Z,1.38
2022-09-05T14:15:54.551Z,1.27
2022-09-05T14:19:19.335Z,1.20
2022-09-05T14:22:47.117Z,1.25
2022-09-05T14:25:56.076Z,1.35
2022-09-05T14:29:19.988Z,1.10
2022-09-05T14:37:43.660Z,1.30
2022-09-05T14:37:45.331Z,1.27
2022-09-05T14:40:29.703Z,1.35
2022-09-05T14:44:08.274Z,1.50
2022-09-05T14:47:35.327Z,1.40
2022-09-05T14:50:59.589Z,1.70
2022-09-05T14:54:11.766Z,1.85
2022-09-05T15:02:38.437Z,1.20
2022-09-05T15:02:43.897Z,1.52
2022-09-05T15:07:38.899Z,1.20
2022-09-05T15:12:16.709Z,1.30
2022-09-05T15:14:11.866Z,1.45
2022-09-05T15:17:22.062Z,1.30
2022-09-05T15:20:37.249Z,1.40
2022-09-05T15:23:42.664Z,1.40
2022-09-05T15:26:52.822Z,1.52
2022-09-05T15:29:58.140Z,1.60
2022-09-05T15:33:25.599Z,1.33
2022-09-05T15:36:34.003Z,1.13
2022-09-05T15:39:39.585Z,1.30
2022-09-05T15:42:49.124Z,1.20
2022-09-05T15:46:00.688Z,1.20
2022-09-05T15:49:05.403Z,1.20
2022-09-05T15:52:29.456Z,1.30
2022-09-05T15:55:46.679Z,1.20
2022-09-05T15:58:56.474Z,1.30
2022-09-05T16:02:00.971Z,1.40
2022-09-05T16:10:21.536Z,1.27
2022-09-05T16:10:40.247Z,1.25
2022-09-05T16:12:17.204Z,1.20
2022-09-05T16:17:36.388Z,1.30
2022-09-05T16:23:27.978Z,1.30
2022-09-05T16:23:28.980Z,1.25
2022-09-05T16:25:46.126Z,1.60
2022-09-05T16:28:52.999Z,1.45
2022-09-05T16:32:15.502Z,1.05
2022-09-05T16:35:25.132Z,1.20
2022-09-05T16:38:49.632Z,1.13
2022-09-05T16:41:55.747Z,1.20
2022-09-05T16:45:05.697Z,1.40
2022-09-05T16:48:25.879Z,1.30
2022-09-05T16:51:36.441Z,1.23
2022-09-05T16:54:42.446Z,1.30
2022-09-05T16:58:02.111Z,1.20
2022-09-05T17:01:54.763Z,1.40
2022-09-05T17:05:13.906Z,1.27
2022-09-05T17:08:24.467Z,1.40
2022-09-05T17:11:29.903Z,1.40
2022-09-05T17:14:40.039Z,1.20
2022-09-05T17:18:22.677Z,1.40
2022-09-05T17:21:35.215Z,1.70
2022-09-05T17:29:18.475Z,1.50
2022-09-05T17:29:34.486Z,1.60
2022-09-05T17:32:19.059Z,1.30
2022-09-05T17:35:42.563Z,1.33
2022-09-05T17:39:02.871Z,1.40
2022-09-05T17:42:26.262Z,1.50
2022-09-05T17:45:45.100Z,1.40
2022-09-05T17:49:20.048Z,1.30
2022-09-05T17:52:24.804Z,1.60
2022-09-05T17:56:06.346Z,1.30
2022-09-05T17:59:26.790Z,1.40
2022-09-05T18:02:32.547Z,1.57
2022-09-05T18:06:07.464Z,1.80
2022-09-05T18:09:48.849Z,1.33
2022-09-05T18:13:13.933Z,1.70
2022-09-05T18:16:30.502Z,2.03
2022-09-05T18:23:43.815Z,1.67
2022-09-05T18:26:53.314Z,1.70
2022-09-05T18:30:06.066Z,1.60
2022-09-05T18:33:29.073Z,1.73
2022-09-05T18:36:36.626Z,2.00
2022-09-05T18:39:43.067Z,1.97
2022-09-05T18:42:49.752Z,1.90
2022-09-05T18:45:58.915Z,1.70
2022-09-05T18:50:21.525Z,1.40
2022-09-05T18:52:44.372Z,1.77
2022-09-05T18:56:12.364Z,2.00
2022-09-05T18:59:23.974Z,1.90
2022-09-05T19:02:50.206Z,1.90
2022-09-05T19:06:34.285Z,2.43
2022-09-05T19:09:28.535Z,2.10
2022-09-05T19:12:45.035Z,1.73
2022-09-05T19:15:58.549Z,1.90
2022-09-05T19:19:24.428Z,2.13
2022-09-05T19:23:08.552Z,2.07
2022-09-05T19:25:55.542Z,2.10
2022-09-05T19:36:57.532Z,2.10
2022-09-05T19:36:57.696Z,2.73
2022-09-05T19:37:09.040Z,2.10
2022-09-05T19:43:14.256Z,2.00
2022-09-05T19:47:43.283Z,2.23
2022-09-05T19:47:43.621Z,2.10
2022-09-05T19:49:36.932Z,1.90
2022-09-05T19:52:41.560Z,2.20
2022-09-05T19:55:45.160Z,2.20
2022-09-05T19:58:48.095Z,2.20
2022-09-05T20:01:53.013Z,2.50
2022-09-05T20:04:58.246Z,2.30
2022-09-05T20:08:05.084Z,2.50
2022-09-05T20:11:09.070Z,2.60
2022-09-05T20:14:21.666Z,2.77
2022-09-05T20:17:27.220Z,2.40
2022-09-05T20:20:32.357Z,2.50
2022-09-05T20:23:40.256Z,2.40
2022-09-05T20:26:46.031Z,2.23
2022-09-05T20:29:56.060Z,2.00
2022-09-05T20:33:02.227Z,2.20
2022-09-05T20:43:14.665Z,2.10
2022-09-05T20:43:17.274Z,2.20
2022-09-05T20:43:30.426Z,2.03
2022-09-05T20:50:44.504Z,2.30
2022-09-05T20:54:18.226Z,2.10
2022-09-05T20:54:31.840Z,2.40
2022-09-05T20:56:56.524Z,2.17
2022-09-05T21:00:06.584Z,2.17
2022-09-05T21:03:09.589Z,2.00
2022-09-05T21:06:22.347Z,2.27
2022-09-05T21:09:29.613Z,2.10
2022-09-05T21:12:45.347Z,2.37
2022-09-05T21:15:53.910Z,2.20
2022-09-05T21:19:20.598Z,2.20
2022-09-05T21:22:25.874Z,2.03
2022-09-05T21:25:43.805Z,2.10
2022-09-05T21:29:04.942Z,2.10
2022-09-05T21:32:11.277Z,2.10
2022-09-05T21:35:33.895Z,2.10
2022-09-05T21:38:41.600Z,2.50
2022-09-05T21:41:45.486Z,2.23
2022-09-05T21:47:48.625Z,2.30
2022-09-05T21:48:21.716Z,2.30
2022-09-05T21:51:26.165Z,2.20
2022-09-05T21:59:22.149Z,2.07
2022-09-05T21:59:26.134Z,2.30
2022-09-05T22:01:17.346Z,2.00
2022-09-05T22:04:22.650Z,2.27
2022-09-05T22:07:32.453Z,2.03
2022-09-05T22:10:51.597Z,2.03
2022-09-05T22:13:58.603Z,2.60
2022-09-05T22:17:05.274Z,2.50
2022-09-05T22:20:09.073Z,2.57
2022-09-05T22:23:12.177Z,2.83
2022-09-05T22:26:16.429Z,2.53
2022-09-05T22:29:19.231Z,2.50
2022-09-05T22:32:33.873Z,2.37
2022-09-05T22:35:40.178Z,2.20
2022-09-05T22:38:43.455Z,2.70
2022-09-05T22:41:46.159Z,2.40
2022-09-05T22:44:49.512Z,2.53
2022-09-05T22:47:53.950Z,2.40
2022-09-05T22:50:57.038Z,2.77
2022-09-05T22:53:59.718Z,2.30
2022-09-05T22:57:02.934Z,2.17
2022-09-05T23:00:08.372Z,2.50
2022-09-05T23:03:12.866Z,2.20
2022-09-05T23:06:16.707Z,2.23
2022-09-05T23:09:19.712Z,2.43
2022-09-05T23:12:22.393Z,2.20
2022-09-05T23:15:25.637Z,2.47
2022-09-05T23:18:31.660Z,2.40
2022-09-05T23:21:35.200Z,2.30
2022-09-05T23:24:37.972Z,2.20
2022-09-05T23:27:40.689Z,2.70
2022-09-05T23:30:43.466Z,2.40
2022-09-05T23:33:47.483Z,2.40
2022-09-05T23:36:50.271Z,2.37
2022-09-05T23:39:53.511Z,2.40
2022-09-05T23:42:58.024Z,2.40
2022-09-05T23:46:01.152Z,2.43
2022-09-05T23:49:05.221Z,2.40
2022-09-05T23:52:08.007Z,2.60
2022-09-05T23:55:11.212Z,2.50
2022-09-05T23:58:14.158Z,2.80
